sensor_id;sensor_type;location;lat;lon;timestamp;temperature;humidity
7708;DHT22;3896;48.758;8.888;2022-10-22T00:02:25;14.60;99.90
7708;DHT22;3896;48.758;8.888;2022-10-22T00:04:52;14.60;99.90
7708;DHT22;3896;48.758;8.888;2022-10-22T00:07:19;14.50;99.90
7708;DHT22;3896;48.758;8.888;2022-10-22T00:09:45;14.50;99.90
7708;DHT22;3896;48.758;8.888;2022-10-22T00:12:13;14.50;99.90
7708;DHT22;3896;48.758;8.888;2022-10-22T00:14:39;14.50;99.90
7708;DHT22;3896;48.758;8.888;2022-10-22T00:17:05;14.50;99.90
7708;DHT22;3896;48.758;8.888;2022-10-22T00:19:30;14.50;99.90
7708;DHT22;3896;48.758;8.888;2022-10-22T00:21:56;14.40;99.90
7708;DHT22;3896;48.758;8.888;2022-10-22T00:24:23;14.40;99.90
7708;DHT22;3896;48.758;8.888;2022-10-22T00:26:48;14.40;99.90
7708;DHT22;3896;48.758;8.888;2022-10-22T00:29:14;14.40;99.90
7708;DHT22;3896;48.758;8.888;2022-10-22T00:31:43;14.40;99.90
7708;DHT22;3896;48.758;8.888;2022-10-22T00:34:15;14.40;99.90
7708;DHT22;3896;48.758;8.888;2022-10-22T00:36:40;14.40;99.90
7708;DHT22;3896;48.758;8.888;2022-10-22T00:39:06;14.40;99.90
7708;DHT22;3896;48.758;8.888;2022-10-22T00:41:32;14.30;99.90
7708;DHT22;3896;48.758;8.888;2022-10-22T00:44:00;14.30;99.90
7708;DHT22;3896;48.758;8.888;2022-10-22T00:46:26;14.30;99.90
7708;DHT22;3896;48.758;8.888;2022-10-22T00:48:54;14.30;99.90
7708;DHT22;3896;48.758;8.888;2022-10-22T00:51:21;14.30;99.90
7708;DHT22;3896;48.758;8.888;2022-10-22T00:53:50;14.30;99.90
7708;DHT22;3896;48.758;8.888;2022-10-22T00:56:18;14.30;99.90
7708;DHT22;3896;48.758;8.888;2022-10-22T00:58:48;14.30;99.90
7708;DHT22;3896;48.758;8.888;2022-10-22T01:01:19;14.30;99.90
7708;DHT22;3896;48.758;8.888;2022-10-22T01:03:46;14.30;99.90
7708;DHT22;3896;48.758;8.888;2022-10-22T01:06:24;14.30;99.90
7708;DHT22;3896;48.758;8.888;2022-10-22T01:21:50;14.20;99.90
7708;DHT22;3896;48.758;8.888;2022-10-22T01:30:07;14.10;99.90
7708;DHT22;3896;48.758;8.888;2022-10-22T01:32:47;14.10;99.90
7708;DHT22;3896;48.758;8.888;2022-10-22T01:35:18;14.10;99.90
7708;DHT22;3896;48.758;8.888;2022-10-22T01:38:08;14.10;99.90
7708;DHT22;3896;48.758;8.888;2022-10-22T01:40:35;14.10;99.90
7708;DHT22;3896;48.758;8.888;2022-10-22T01:43:05;14.10;99.90
7708;DHT22;3896;48.758;8.888;2022-10-22T01:45:34;14.10;99.90
7708;DHT22;3896;48.758;8.888;2022-10-22T01:55:50;14.10;99.90
7708;DHT22;3896;48.758;8.888;2022-10-22T02:01:03;14.10;99.90
7708;DHT22;3896;48.758;8.888;2022-10-22T02:03:39;14.10;99.90
7708;DHT22;3896;48.758;8.888;2022-10-22T02:06:13;14.10;99.90
7708;DHT22;3896;48.758;8.888;2022-10-22T02:08:40;14.00;99.90
7708;DHT22;3896;48.758;8.888;2022-10-22T02:11:06;14.10;99.90
7708;DHT22;3896;48.758;8.888;2022-10-22T02:13:40;14.10;99.90
7708;DHT22;3896;48.758;8.888;2022-10-22T02:16:08;14.10;99.90
7708;DHT22;3896;48.758;8.888;2022-10-22T02:18:38;14.10;99.90
7708;DHT22;3896;48.758;8.888;2022-10-22T02:21:05;14.10;99.90
7708;DHT22;3896;48.758;8.888;2022-10-22T02:23:31;14.10;99.90
7708;DHT22;3896;48.758;8.888;2022-10-22T02:26:30;14.10;99.90
7708;DHT22;3896;48.758;8.888;2022-10-22T02:29:10;14.00;99.90
7708;DHT22;3896;48.758;8.888;2022-10-22T02:31:38;14.00;99.90
7708;DHT22;3896;48.758;8.888;2022-10-22T02:34:13;14.10;99.90
7708;DHT22;3896;48.758;8.888;2022-10-22T02:36:41;14.00;99.90
7708;DHT22;3896;48.758;8.888;2022-10-22T02:39:08;14.00;99.90
7708;DHT22;3896;48.758;8.888;2022-10-22T02:41:36;14.10;99.90
7708;DHT22;3896;48.758;8.888;2022-10-22T02:44:07;14.10;99.90
7708;DHT22;3896;48.758;8.888;2022-10-22T02:46:33;14.10;99.90
7708;DHT22;3896;48.758;8.888;2022-10-22T02:48:59;14.10;99.90
7708;DHT22;3896;48.758;8.888;2022-10-22T02:51:24;14.10;99.90
7708;DHT22;3896;48.758;8.888;2022-10-22T02:53:50;14.10;99.90
7708;DHT22;3896;48.758;8.888;2022-10-22T02:56:16;14.10;99.90
7708;DHT22;3896;48.758;8.888;2022-10-22T02:58:41;14.00;99.90
7708;DHT22;3896;48.758;8.888;2022-10-22T03:01:07;14.10;99.90
7708;DHT22;3896;48.758;8.888;2022-10-22T03:03:33;14.00;99.90
7708;DHT22;3896;48.758;8.888;2022-10-22T03:05:58;14.10;99.90
7708;DHT22;3896;48.758;8.888;2022-10-22T03:08:24;14.10;99.90
7708;DHT22;3896;48.758;8.888;2022-10-22T03:10:50;14.10;99.90
7708;DHT22;3896;48.758;8.888;2022-10-22T03:13:15;14.10;99.90
7708;DHT22;3896;48.758;8.888;2022-10-22T03:15:41;14.10;99.90
7708;DHT22;3896;48.758;8.888;2022-10-22T03:18:06;14.10;99.90
7708;DHT22;3896;48.758;8.888;2022-10-22T03:20:32;14.10;99.90
7708;DHT22;3896;48.758;8.888;2022-10-22T03:22:58;14.10;99.90
7708;DHT22;3896;48.758;8.888;2022-10-22T03:25:26;14.10;99.90
7708;DHT22;3896;48.758;8.888;2022-10-22T03:27:53;14.10;99.90
7708;DHT22;3896;48.758;8.888;2022-10-22T03:30:20;14.10;99.90
7708;DHT22;3896;48.758;8.888;2022-10-22T03:32:46;14.10;99.90
7708;DHT22;3896;48.758;8.888;2022-10-22T03:35:12;14.10;99.90
7708;DHT22;3896;48.758;8.888;2022-10-22T03:37:37;14.10;99.90
7708;DHT22;3896;48.758;8.888;2022-10-22T03:40:05;14.10;99.90
7708;DHT22;3896;48.758;8.888;2022-10-22T03:42:32;14.00;99.90
7708;DHT22;3896;48.758;8.888;2022-10-22T03:44:57;14.10;99.90
7708;DHT22;3896;48.758;8.888;2022-10-22T03:47:23;14.10;99.90
7708;DHT22;3896;48.758;8.888;2022-10-22T03:49:50;14.10;99.90
7708;DHT22;3896;48.758;8.888;2022-10-22T03:52:16;14.10;99.90
7708;DHT22;3896;48.758;8.888;2022-10-22T03:54:41;14.10;99.90
7708;DHT22;3896;48.758;8.888;2022-10-22T03:57:08;14.10;99.90
7708;DHT22;3896;48.758;8.888;2022-10-22T03:59:39;14.10;99.90
7708;DHT22;3896;48.758;8.888;2022-10-22T04:02:05;14.00;99.90
7708;DHT22;3896;48.758;8.888;2022-10-22T04:04:30;14.10;99.90
7708;DHT22;3896;48.758;8.888;2022-10-22T04:06:56;14.10;99.90
7708;DHT22;3896;48.758;8.888;2022-10-22T04:09:22;14.00;99.90
7708;DHT22;3896;48.758;8.888;2022-10-22T04:11:48;14.00;99.90
7708;DHT22;3896;48.758;8.888;2022-10-22T04:14:14;14.00;99.90
7708;DHT22;3896;48.758;8.888;2022-10-22T04:16:40;14.00;99.90
7708;DHT22;3896;48.758;8.888;2022-10-22T04:19:06;14.00;99.90
7708;DHT22;3896;48.758;8.888;2022-10-22T04:21:31;14.00;99.90
7708;DHT22;3896;48.758;8.888;2022-10-22T04:23:57;14.00;99.90
7708;DHT22;3896;48.758;8.888;2022-10-22T04:26:23;14.00;99.90
7708;DHT22;3896;48.758;8.888;2022-10-22T04:28:50;14.00;99.90
7708;DHT22;3896;48.758;8.888;2022-10-22T04:31:19;14.00;99.90
7708;DHT22;3896;48.758;8.888;2022-10-22T04:33:46;14.00;99.90
7708;DHT22;3896;48.758;8.888;2022-10-22T04:36:15;14.00;99.90
7708;DHT22;3896;48.758;8.888;2022-10-22T04:38:43;13.90;99.90
7708;DHT22;3896;48.758;8.888;2022-10-22T04:41:14;13.90;99.90
7708;DHT22;3896;48.758;8.888;2022-10-22T04:43:41;14.00;99.90
7708;DHT22;3896;48.758;8.888;2022-10-22T04:46:07;14.00;99.90
7708;DHT22;3896;48.758;8.888;2022-10-22T04:48:37;14.00;99.90
7708;DHT22;3896;48.758;8.888;2022-10-22T04:51:04;14.00;99.90
7708;DHT22;3896;48.758;8.888;2022-10-22T04:53:31;14.00;99.90
7708;DHT22;3896;48.758;8.888;2022-10-22T04:58:45;13.90;99.90
7708;DHT22;3896;48.758;8.888;2022-10-22T05:01:20;13.90;99.90
7708;DHT22;3896;48.758;8.888;2022-10-22T05:03:50;13.90;99.90
7708;DHT22;3896;48.758;8.888;2022-10-22T05:06:16;13.90;99.90
7708;DHT22;3896;48.758;8.888;2022-10-22T05:08:42;13.90;99.90
7708;DHT22;3896;48.758;8.888;2022-10-22T05:11:16;13.90;99.90
7708;DHT22;3896;48.758;8.888;2022-10-22T05:13:43;13.90;99.90
7708;DHT22;3896;48.758;8.888;2022-10-22T05:16:09;13.90;99.90
7708;DHT22;3896;48.758;8.888;2022-10-22T05:18:36;13.90;99.90
7708;DHT22;3896;48.758;8.888;2022-10-22T05:21:03;13.80;99.90
7708;DHT22;3896;48.758;8.888;2022-10-22T05:23:29;13.80;99.90
7708;DHT22;3896;48.758;8.888;2022-10-22T05:25:55;13.80;99.90
7708;DHT22;3896;48.758;8.888;2022-10-22T05:28:21;13.80;99.90
7708;DHT22;3896;48.758;8.888;2022-10-22T05:30:54;13.80;99.90
7708;DHT22;3896;48.758;8.888;2022-10-22T05:33:20;13.80;99.90
7708;DHT22;3896;48.758;8.888;2022-10-22T05:35:50;13.80;99.90
7708;DHT22;3896;48.758;8.888;2022-10-22T05:38:16;13.80;99.90
7708;DHT22;3896;48.758;8.888;2022-10-22T05:40:43;13.80;99.90
7708;DHT22;3896;48.758;8.888;2022-10-22T05:43:08;13.80;99.90
7708;DHT22;3896;48.758;8.888;2022-10-22T05:45:38;13.70;99.90
7708;DHT22;3896;48.758;8.888;2022-10-22T05:48:04;13.70;99.90
7708;DHT22;3896;48.758;8.888;2022-10-22T05:50:30;13.70;99.90
7708;DHT22;3896;48.758;8.888;2022-10-22T05:52:56;13.70;99.90
7708;DHT22;3896;48.758;8.888;2022-10-22T05:55:22;13.70;99.90
7708;DHT22;3896;48.758;8.888;2022-10-22T05:57:48;13.70;99.90
7708;DHT22;3896;48.758;8.888;2022-10-22T06:00:15;13.70;99.90
7708;DHT22;3896;48.758;8.888;2022-10-22T06:02:41;13.70;99.90
7708;DHT22;3896;48.758;8.888;2022-10-22T06:05:07;13.70;99.90
7708;DHT22;3896;48.758;8.888;2022-10-22T06:07:32;13.60;99.90
7708;DHT22;3896;48.758;8.888;2022-10-22T06:09:59;13.70;99.90
7708;DHT22;3896;48.758;8.888;2022-10-22T06:12:25;13.60;99.90
7708;DHT22;3896;48.758;8.888;2022-10-22T06:14:51;13.60;99.90
7708;DHT22;3896;48.758;8.888;2022-10-22T06:17:16;13.60;99.90
7708;DHT22;3896;48.758;8.888;2022-10-22T06:19:44;13.60;99.90
7708;DHT22;3896;48.758;8.888;2022-10-22T06:22:10;13.60;99.90
7708;DHT22;3896;48.758;8.888;2022-10-22T06:24:35;13.60;99.90
7708;DHT22;3896;48.758;8.888;2022-10-22T06:27:01;13.60;99.90
7708;DHT22;3896;48.758;8.888;2022-10-22T06:29:27;14.00;99.90
7708;DHT22;3896;48.758;8.888;2022-10-22T06:31:52;13.80;99.90
7708;DHT22;3896;48.758;8.888;2022-10-22T06:34:18;13.80;99.90
7708;DHT22;3896;48.758;8.888;2022-10-22T06:36:44;13.70;99.90
7708;DHT22;3896;48.758;8.888;2022-10-22T06:39:12;13.70;99.90
7708;DHT22;3896;48.758;8.888;2022-10-22T06:41:38;13.60;99.90
7708;DHT22;3896;48.758;8.888;2022-10-22T06:44:04;13.60;99.90
7708;DHT22;3896;48.758;8.888;2022-10-22T06:46:29;13.50;99.90
7708;DHT22;3896;48.758;8.888;2022-10-22T06:49:01;13.50;99.90
7708;DHT22;3896;48.758;8.888;2022-10-22T06:51:27;13.50;99.90
7708;DHT22;3896;48.758;8.888;2022-10-22T06:53:54;13.50;99.90
7708;DHT22;3896;48.758;8.888;2022-10-22T06:56:22;13.50;99.90
7708;DHT22;3896;48.758;8.888;2022-10-22T06:58:49;13.50;99.90
7708;DHT22;3896;48.758;8.888;2022-10-22T07:01:18;13.50;99.90
7708;DHT22;3896;48.758;8.888;2022-10-22T07:03:44;13.50;99.90
7708;DHT22;3896;48.758;8.888;2022-10-22T07:06:12;13.50;99.90
7708;DHT22;3896;48.758;8.888;2022-10-22T07:08:39;13.50;99.90
7708;DHT22;3896;48.758;8.888;2022-10-22T07:11:10;13.50;99.90
7708;DHT22;3896;48.758;8.888;2022-10-22T07:13:36;13.50;99.90
7708;DHT22;3896;48.758;8.888;2022-10-22T07:16:02;13.50;99.90
7708;DHT22;3896;48.758;8.888;2022-10-22T07:18:29;13.50;99.90
7708;DHT22;3896;48.758;8.888;2022-10-22T07:20:55;13.60;99.90
7708;DHT22;3896;48.758;8.888;2022-10-22T07:23:20;13.60;99.90
7708;DHT22;3896;48.758;8.888;2022-10-22T07:25:46;13.60;99.90
7708;DHT22;3896;48.758;8.888;2022-10-22T07:28:12;13.60;99.90
7708;DHT22;3896;48.758;8.888;2022-10-22T07:30:38;13.60;99.90
7708;DHT22;3896;48.758;8.888;2022-10-22T07:33:04;13.70;99.90
7708;DHT22;3896;48.758;8.888;2022-10-22T07:35:30;13.70;99.90
7708;DHT22;3896;48.758;8.888;2022-10-22T07:37:56;13.70;99.90
7708;DHT22;3896;48.758;8.888;2022-10-22T07:40:21;13.80;99.90
7708;DHT22;3896;48.758;8.888;2022-10-22T07:42:47;13.90;99.90
7708;DHT22;3896;48.758;8.888;2022-10-22T07:45:13;13.90;99.90
7708;DHT22;3896;48.758;8.888;2022-10-22T07:47:38;13.90;99.90
7708;DHT22;3896;48.758;8.888;2022-10-22T07:50:04;14.00;99.90
7708;DHT22;3896;48.758;8.888;2022-10-22T07:52:31;14.00;99.90
7708;DHT22;3896;48.758;8.888;2022-10-22T07:54:57;14.10;99.90
7708;DHT22;3896;48.758;8.888;2022-10-22T07:57:23;14.10;99.90
7708;DHT22;3896;48.758;8.888;2022-10-22T07:59:48;14.10;99.90
7708;DHT22;3896;48.758;8.888;2022-10-22T08:02:14;14.20;99.90
7708;DHT22;3896;48.758;8.888;2022-10-22T08:04:39;14.20;99.90
7708;DHT22;3896;48.758;8.888;2022-10-22T08:07:05;14.30;99.90
7708;DHT22;3896;48.758;8.888;2022-10-22T08:09:31;14.30;99.90
7708;DHT22;3896;48.758;8.888;2022-10-22T08:11:56;14.40;99.90
7708;DHT22;3896;48.758;8.888;2022-10-22T08:14:22;14.40;99.90
7708;DHT22;3896;48.758;8.888;2022-10-22T08:16:48;14.50;99.90
7708;DHT22;3896;48.758;8.888;2022-10-22T08:19:13;14.60;99.90
7708;DHT22;3896;48.758;8.888;2022-10-22T08:21:43;14.60;99.90
7708;DHT22;3896;48.758;8.888;2022-10-22T08:24:10;14.70;99.90
7708;DHT22;3896;48.758;8.888;2022-10-22T08:26:35;14.80;99.90
7708;DHT22;3896;48.758;8.888;2022-10-22T08:29:01;14.90;99.90
7708;DHT22;3896;48.758;8.888;2022-10-22T08:31:26;14.90;99.90
7708;DHT22;3896;48.758;8.888;2022-10-22T08:33:52;15.00;99.90
7708;DHT22;3896;48.758;8.888;2022-10-22T08:36:17;15.00;99.90
7708;DHT22;3896;48.758;8.888;2022-10-22T08:38:43;15.10;99.90
7708;DHT22;3896;48.758;8.888;2022-10-22T08:41:13;15.20;99.90
7708;DHT22;3896;48.758;8.888;2022-10-22T08:43:56;15.20;99.90
7708;DHT22;3896;48.758;8.888;2022-10-22T08:49:12;15.30;99.90
7708;DHT22;3896;48.758;8.888;2022-10-22T08:51:39;15.40;99.90
7708;DHT22;3896;48.758;8.888;2022-10-22T08:59:26;15.60;99.90
7708;DHT22;3896;48.758;8.888;2022-10-22T09:01:56;15.70;99.90
7708;DHT22;3896;48.758;8.888;2022-10-22T09:04:33;15.80;99.90
7708;DHT22;3896;48.758;8.888;2022-10-22T09:07:01;15.80;99.90
7708;DHT22;3896;48.758;8.888;2022-10-22T09:09:31;16.00;99.90
7708;DHT22;3896;48.758;8.888;2022-10-22T09:12:00;16.00;99.90
7708;DHT22;3896;48.758;8.888;2022-10-22T09:14:26;16.20;99.90
7708;DHT22;3896;48.758;8.888;2022-10-22T09:17:19;16.20;99.90
7708;DHT22;3896;48.758;8.888;2022-10-22T09:27:36;16.60;99.90
7708;DHT22;3896;48.758;8.888;2022-10-22T09:30:03;16.80;99.90
7708;DHT22;3896;48.758;8.888;2022-10-22T09:32:28;16.90;99.90
7708;DHT22;3896;48.758;8.888;2022-10-22T09:34:56;17.00;99.90
7708;DHT22;3896;48.758;8.888;2022-10-22T09:37:26;17.10;99.90
7708;DHT22;3896;48.758;8.888;2022-10-22T09:39:54;17.20;99.90
7708;DHT22;3896;48.758;8.888;2022-10-22T09:42:20;17.40;99.90
7708;DHT22;3896;48.758;8.888;2022-10-22T09:44:53;17.50;99.90
7708;DHT22;3896;48.758;8.888;2022-10-22T09:50:21;17.70;99.90
7708;DHT22;3896;48.758;8.888;2022-10-22T09:55:38;18.00;99.90
7708;DHT22;3896;48.758;8.888;2022-10-22T09:58:04;18.10;99.90
7708;DHT22;3896;48.758;8.888;2022-10-22T10:00:30;18.20;99.90
7708;DHT22;3896;48.758;8.888;2022-10-22T10:02:58;18.40;99.90
7708;DHT22;3896;48.758;8.888;2022-10-22T10:05:33;18.50;99.90
7708;DHT22;3896;48.758;8.888;2022-10-22T10:08:06;18.60;99.90
7708;DHT22;3896;48.758;8.888;2022-10-22T10:10:34;18.70;99.90
7708;DHT22;3896;48.758;8.888;2022-10-22T10:26:59;19.20;99.90
7708;DHT22;3896;48.758;8.888;2022-10-22T10:34:51;19.40;99.90
7708;DHT22;3896;48.758;8.888;2022-10-22T10:37:21;19.50;99.90
7708;DHT22;3896;48.758;8.888;2022-10-22T10:40:07;19.60;99.90
7708;DHT22;3896;48.758;8.888;2022-10-22T10:42:42;19.70;99.90
7708;DHT22;3896;48.758;8.888;2022-10-22T10:59:24;20.20;99.40
7708;DHT22;3896;48.758;8.888;2022-10-22T11:05:02;20.40;96.10
7708;DHT22;3896;48.758;8.888;2022-10-22T11:07:41;20.50;94.90
7708;DHT22;3896;48.758;8.888;2022-10-22T11:10:52;20.50;94.20
7708;DHT22;3896;48.758;8.888;2022-10-22T11:13:24;20.60;94.30
7708;DHT22;3896;48.758;8.888;2022-10-22T11:24:52;20.80;91.40
7708;DHT22;3896;48.758;8.888;2022-10-22T11:30:10;20.90;91.80
7708;DHT22;3896;48.758;8.888;2022-10-22T11:32:37;20.90;90.70
7708;DHT22;3896;48.758;8.888;2022-10-22T11:35:06;20.90;90.90
7708;DHT22;3896;48.758;8.888;2022-10-22T11:37:34;20.90;90.60
7708;DHT22;3896;48.758;8.888;2022-10-22T11:40:18;20.90;90.10
7708;DHT22;3896;48.758;8.888;2022-10-22T11:42:54;21.00;89.20
7708;DHT22;3896;48.758;8.888;2022-10-22T11:50:26;21.10;88.60
7708;DHT22;3896;48.758;8.888;2022-10-22T11:53:04;21.20;88.70
7708;DHT22;3896;48.758;8.888;2022-10-22T11:55:43;21.30;87.20
7708;DHT22;3896;48.758;8.888;2022-10-22T11:58:45;21.40;86.20
7708;DHT22;3896;48.758;8.888;2022-10-22T12:06:27;21.70;83.90
7708;DHT22;3896;48.758;8.888;2022-10-22T12:11:39;21.90;81.00
7708;DHT22;3896;48.758;8.888;2022-10-22T12:14:22;22.00;81.10
7708;DHT22;3896;48.758;8.888;2022-10-22T12:17:07;22.10;80.50
7708;DHT22;3896;48.758;8.888;2022-10-22T12:19:40;22.10;80.10
7708;DHT22;3896;48.758;8.888;2022-10-22T12:24:52;22.20;80.70
7708;DHT22;3896;48.758;8.888;2022-10-22T12:27:39;22.20;80.50
7708;DHT22;3896;48.758;8.888;2022-10-22T12:30:26;22.30;80.50
7708;DHT22;3896;48.758;8.888;2022-10-22T12:32:59;22.50;79.20
7708;DHT22;3896;48.758;8.888;2022-10-22T12:35:34;22.60;79.80
7708;DHT22;3896;48.758;8.888;2022-10-22T12:38:17;22.70;77.50
7708;DHT22;3896;48.758;8.888;2022-10-22T12:40:44;22.90;78.70
7708;DHT22;3896;48.758;8.888;2022-10-22T12:43:13;23.10;76.40
7708;DHT22;3896;48.758;8.888;2022-10-22T12:45:39;23.20;73.80
7708;DHT22;3896;48.758;8.888;2022-10-22T12:48:13;23.40;72.40
7708;DHT22;3896;48.758;8.888;2022-10-22T12:50:46;23.50;69.60
7708;DHT22;3896;48.758;8.888;2022-10-22T12:53:23;23.70;68.30
7708;DHT22;3896;48.758;8.888;2022-10-22T12:55:53;23.80;68.10
7708;DHT22;3896;48.758;8.888;2022-10-22T12:58:23;24.10;67.30
7708;DHT22;3896;48.758;8.888;2022-10-22T13:00:56;24.30;65.90
7708;DHT22;3896;48.758;8.888;2022-10-22T13:03:39;24.50;64.50
7708;DHT22;3896;48.758;8.888;2022-10-22T13:06:23;24.60;63.70
7708;DHT22;3896;48.758;8.888;2022-10-22T13:11:38;24.80;62.90
7708;DHT22;3896;48.758;8.888;2022-10-22T13:17:14;24.80;62.90
7708;DHT22;3896;48.758;8.888;2022-10-22T13:19:44;24.70;63.80
7708;DHT22;3896;48.758;8.888;2022-10-22T13:24:57;24.70;65.90
7708;DHT22;3896;48.758;8.888;2022-10-22T13:27:26;24.70;64.40
7708;DHT22;3896;48.758;8.888;2022-10-22T13:29:53;24.80;64.60
7708;DHT22;3896;48.758;8.888;2022-10-22T13:32:29;24.80;62.30
7708;DHT22;3896;48.758;8.888;2022-10-22T13:34:58;24.70;61.40
7708;DHT22;3896;48.758;8.888;2022-10-22T13:37:24;24.70;60.90
7708;DHT22;3896;48.758;8.888;2022-10-22T13:39:50;24.70;62.30
7708;DHT22;3896;48.758;8.888;2022-10-22T13:42:16;24.60;63.40
7708;DHT22;3896;48.758;8.888;2022-10-22T13:44:41;24.60;64.80
7708;DHT22;3896;48.758;8.888;2022-10-22T13:47:36;24.70;65.00
7708;DHT22;3896;48.758;8.888;2022-10-22T13:50:03;24.70;67.00
7708;DHT22;3896;48.758;8.888;2022-10-22T13:55:27;25.00;65.50
7708;DHT22;3896;48.758;8.888;2022-10-22T13:58:11;25.20;65.00
7708;DHT22;3896;48.758;8.888;2022-10-22T14:00:39;25.30;62.80
7708;DHT22;3896;48.758;8.888;2022-10-22T14:03:09;25.50;61.40
7708;DHT22;3896;48.758;8.888;2022-10-22T14:05:35;25.70;60.60
7708;DHT22;3896;48.758;8.888;2022-10-22T14:08:02;25.80;59.50
7708;DHT22;3896;48.758;8.888;2022-10-22T14:10:27;26.00;58.90
7708;DHT22;3896;48.758;8.888;2022-10-22T14:12:53;26.10;58.30
7708;DHT22;3896;48.758;8.888;2022-10-22T14:15:21;26.30;57.90
7708;DHT22;3896;48.758;8.888;2022-10-22T14:17:53;26.40;57.30
7708;DHT22;3896;48.758;8.888;2022-10-22T14:20:22;26.60;56.70
7708;DHT22;3896;48.758;8.888;2022-10-22T14:22:49;26.70;56.70
7708;DHT22;3896;48.758;8.888;2022-10-22T14:25:16;26.80;56.40
7708;DHT22;3896;48.758;8.888;2022-10-22T14:27:42;26.90;56.40
7708;DHT22;3896;48.758;8.888;2022-10-22T14:30:09;26.90;55.40
7708;DHT22;3896;48.758;8.888;2022-10-22T14:32:37;27.00;54.50
7708;DHT22;3896;48.758;8.888;2022-10-22T14:35:03;26.90;54.30
7708;DHT22;3896;48.758;8.888;2022-10-22T14:37:29;26.90;53.50
7708;DHT22;3896;48.758;8.888;2022-10-22T14:39:54;26.80;53.10
7708;DHT22;3896;48.758;8.888;2022-10-22T14:42:26;26.80;53.00
7708;DHT22;3896;48.758;8.888;2022-10-22T14:44:52;26.70;52.90
7708;DHT22;3896;48.758;8.888;2022-10-22T14:47:17;26.60;53.30
7708;DHT22;3896;48.758;8.888;2022-10-22T14:49:43;26.50;53.10
7708;DHT22;3896;48.758;8.888;2022-10-22T14:52:09;26.40;53.20
7708;DHT22;3896;48.758;8.888;2022-10-22T14:54:34;26.20;53.50
7708;DHT22;3896;48.758;8.888;2022-10-22T14:57:01;26.10;53.40
7708;DHT22;3896;48.758;8.888;2022-10-22T14:59:27;26.00;53.20
7708;DHT22;3896;48.758;8.888;2022-10-22T15:01:53;25.90;53.30
7708;DHT22;3896;48.758;8.888;2022-10-22T15:04:19;25.80;53.40
7708;DHT22;3896;48.758;8.888;2022-10-22T15:06:44;25.60;54.00
7708;DHT22;3896;48.758;8.888;2022-10-22T15:09:10;25.40;54.40
7708;DHT22;3896;48.758;8.888;2022-10-22T15:11:35;25.30;54.20
7708;DHT22;3896;48.758;8.888;2022-10-22T15:14:01;25.10;54.10
7708;DHT22;3896;48.758;8.888;2022-10-22T15:16:27;25.00;54.30
7708;DHT22;3896;48.758;8.888;2022-10-22T15:18:52;24.90;54.30
7708;DHT22;3896;48.758;8.888;2022-10-22T15:21:20;24.80;54.50
7708;DHT22;3896;48.758;8.888;2022-10-22T15:23:47;24.60;54.60
7708;DHT22;3896;48.758;8.888;2022-10-22T15:26:14;24.50;54.60
7708;DHT22;3896;48.758;8.888;2022-10-22T15:28:40;24.30;54.30
7708;DHT22;3896;48.758;8.888;2022-10-22T15:31:07;24.20;54.60
7708;DHT22;3896;48.758;8.888;2022-10-22T15:33:33;24.10;55.70
7708;DHT22;3896;48.758;8.888;2022-10-22T15:36:11;24.00;56.60
7708;DHT22;3896;48.758;8.888;2022-10-22T15:38:37;23.80;57.10
7708;DHT22;3896;48.758;8.888;2022-10-22T15:41:04;23.70;57.30
7708;DHT22;3896;48.758;8.888;2022-10-22T15:43:31;23.60;57.70
7708;DHT22;3896;48.758;8.888;2022-10-22T15:46:12;23.40;58.40
7708;DHT22;3896;48.758;8.888;2022-10-22T15:48:38;23.20;59.50
7708;DHT22;3896;48.758;8.888;2022-10-22T15:51:16;23.20;60.70
7708;DHT22;3896;48.758;8.888;2022-10-22T15:53:42;23.00;61.80
7708;DHT22;3896;48.758;8.888;2022-10-22T15:56:09;22.90;62.80
7708;DHT22;3896;48.758;8.888;2022-10-22T15:58:36;22.80;63.60
7708;DHT22;3896;48.758;8.888;2022-10-22T16:01:06;22.60;64.10
7708;DHT22;3896;48.758;8.888;2022-10-22T16:03:32;22.40;64.60
7708;DHT22;3896;48.758;8.888;2022-10-22T16:05:58;22.20;65.20
7708;DHT22;3896;48.758;8.888;2022-10-22T16:08:24;22.10;65.80
7708;DHT22;3896;48.758;8.888;2022-10-22T16:10:50;21.90;66.20
7708;DHT22;3896;48.758;8.888;2022-10-22T16:13:16;21.80;66.80
7708;DHT22;3896;48.758;8.888;2022-10-22T16:15:41;21.60;67.10
7708;DHT22;3896;48.758;8.888;2022-10-22T16:18:07;21.50;67.50
7708;DHT22;3896;48.758;8.888;2022-10-22T16:20:38;21.30;67.70
7708;DHT22;3896;48.758;8.888;2022-10-22T16:23:03;21.10;68.00
7708;DHT22;3896;48.758;8.888;2022-10-22T16:25:29;21.10;68.60
7708;DHT22;3896;48.758;8.888;2022-10-22T16:27:55;20.90;68.70
7708;DHT22;3896;48.758;8.888;2022-10-22T16:30:20;20.80;69.10
7708;DHT22;3896;48.758;8.888;2022-10-22T16:32:46;20.60;69.20
7708;DHT22;3896;48.758;8.888;2022-10-22T16:35:12;20.50;69.60
7708;DHT22;3896;48.758;8.888;2022-10-22T16:37:37;20.30;69.90
7708;DHT22;3896;48.758;8.888;2022-10-22T16:40:03;20.20;70.20
7708;DHT22;3896;48.758;8.888;2022-10-22T16:42:29;20.00;70.40
7708;DHT22;3896;48.758;8.888;2022-10-22T16:44:54;19.90;70.70
7708;DHT22;3896;48.758;8.888;2022-10-22T16:47:20;19.80;71.00
7708;DHT22;3896;48.758;8.888;2022-10-22T16:49:46;19.60;71.20
7708;DHT22;3896;48.758;8.888;2022-10-22T16:52:11;19.50;71.50
7708;DHT22;3896;48.758;8.888;2022-10-22T16:54:37;19.40;71.70
7708;DHT22;3896;48.758;8.888;2022-10-22T16:57:03;19.30;71.90
7708;DHT22;3896;48.758;8.888;2022-10-22T16:59:28;19.20;72.10
7708;DHT22;3896;48.758;8.888;2022-10-22T17:01:54;19.00;72.20
7708;DHT22;3896;48.758;8.888;2022-10-22T17:04:20;18.90;72.50
7708;DHT22;3896;48.758;8.888;2022-10-22T17:06:46;18.80;73.00
7708;DHT22;3896;48.758;8.888;2022-10-22T17:09:12;18.70;73.40
7708;DHT22;3896;48.758;8.888;2022-10-22T17:11:40;18.60;73.50
7708;DHT22;3896;48.758;8.888;2022-10-22T17:14:05;18.50;73.90
7708;DHT22;3896;48.758;8.888;2022-10-22T17:16:31;18.40;74.10
7708;DHT22;3896;48.758;8.888;2022-10-22T17:18:57;18.30;74.20
7708;DHT22;3896;48.758;8.888;2022-10-22T17:21:23;18.20;74.50
7708;DHT22;3896;48.758;8.888;2022-10-22T17:23:53;18.10;74.80
7708;DHT22;3896;48.758;8.888;2022-10-22T17:28:55;17.90;75.10
7708;DHT22;3896;48.758;8.888;2022-10-22T17:31:26;17.80;75.30
7708;DHT22;3896;48.758;8.888;2022-10-22T17:33:54;17.70;75.80
7708;DHT22;3896;48.758;8.888;2022-10-22T17:36:22;17.60;76.60
7708;DHT22;3896;48.758;8.888;2022-10-22T17:38:50;17.50;76.40
7708;DHT22;3896;48.758;8.888;2022-10-22T17:41:25;17.40;76.70
7708;DHT22;3896;48.758;8.888;2022-10-22T17:43:51;17.30;76.90
7708;DHT22;3896;48.758;8.888;2022-10-22T17:46:19;17.30;77.30
7708;DHT22;3896;48.758;8.888;2022-10-22T17:48:52;17.20;77.40
7708;DHT22;3896;48.758;8.888;2022-10-22T17:51:19;17.10;77.30
7708;DHT22;3896;48.758;8.888;2022-10-22T17:53:45;17.00;77.50
7708;DHT22;3896;48.758;8.888;2022-10-22T17:56:13;16.90;78.00
7708;DHT22;3896;48.758;8.888;2022-10-22T17:58:39;16.80;78.20
7708;DHT22;3896;48.758;8.888;2022-10-22T18:01:05;16.70;78.60
7708;DHT22;3896;48.758;8.888;2022-10-22T18:03:31;16.60;78.80
7708;DHT22;3896;48.758;8.888;2022-10-22T18:06:07;16.50;78.90
7708;DHT22;3896;48.758;8.888;2022-10-22T18:08:34;16.40;79.00
7708;DHT22;3896;48.758;8.888;2022-10-22T18:10:59;16.40;79.20
7708;DHT22;3896;48.758;8.888;2022-10-22T18:13:25;16.30;79.50
7708;DHT22;3896;48.758;8.888;2022-10-22T18:15:57;16.20;79.60
7708;DHT22;3896;48.758;8.888;2022-10-22T18:18:22;16.10;80.00
7708;DHT22;3896;48.758;8.888;2022-10-22T18:20:52;16.00;80.20
7708;DHT22;3896;48.758;8.888;2022-10-22T18:23:18;15.90;80.50